sensor_id;sensor_type;location;lat;lon;timestamp;temperature;humidity
39493;DHT22;25176;51.060;3.720;2022-12-04T00:01:39;3.60;99.90
39493;DHT22;25176;51.060;3.720;2022-12-04T00:04:05;3.60;99.90
39493;DHT22;25176;51.060;3.720;2022-12-04T00:06:31;3.50;99.90
39493;DHT22;25176;51.060;3.720;2022-12-04T00:08:58;3.60;99.90
39493;DHT22;25176;51.060;3.720;2022-12-04T00:11:25;3.60;99.90
39493;DHT22;25176;51.060;3.720;2022-12-04T00:13:52;3.40;99.90
39493;DHT22;25176;51.060;3.720;2022-12-04T00:16:19;3.40;99.90
39493;DHT22;25176;51.060;3.720;2022-12-04T00:18:45;3.60;99.90
39493;DHT22;25176;51.060;3.720;2022-12-04T00:21:11;3.70;99.90
39493;DHT22;25176;51.060;3.720;2022-12-04T00:23:37;3.50;99.90
39493;DHT22;25176;51.060;3.720;2022-12-04T00:26:03;3.50;99.90
39493;DHT22;25176;51.060;3.720;2022-12-04T00:28:29;3.40;99.90
39493;DHT22;25176;51.060;3.720;2022-12-04T00:30:55;3.40;99.90
39493;DHT22;25176;51.060;3.720;2022-12-04T00:33:20;3.40;99.90
39493;DHT22;25176;51.060;3.720;2022-12-04T00:35:46;3.30;99.90
39493;DHT22;25176;51.060;3.720;2022-12-04T00:38:11;3.30;99.90
39493;DHT22;25176;51.060;3.720;2022-12-04T00:40:37;3.20;99.90
39493;DHT22;25176;51.060;3.720;2022-12-04T00:43:02;3.30;99.90
39493;DHT22;25176;51.060;3.720;2022-12-04T00:45:28;3.10;99.90
39493;DHT22;25176;51.060;3.720;2022-12-04T00:47:53;3.10;99.90
39493;DHT22;25176;51.060;3.720;2022-12-04T00:50:19;3.10;99.90
39493;DHT22;25176;51.060;3.720;2022-12-04T00:52:44;3.10;99.90
39493;DHT22;25176;51.060;3.720;2022-12-04T00:55:10;3.20;99.90
39493;DHT22;25176;51.060;3.720;2022-12-04T00:57:35;3.10;99.90
39493;DHT22;25176;51.060;3.720;2022-12-04T01:00:01;3.00;99.90
39493;DHT22;25176;51.060;3.720;2022-12-04T01:02:28;3.00;99.90
39493;DHT22;25176;51.060;3.720;2022-12-04T01:04:54;3.00;99.90
39493;DHT22;25176;51.060;3.720;2022-12-04T01:07:19;3.00;99.90
39493;DHT22;25176;51.060;3.720;2022-12-04T01:09:45;3.00;99.90
39493;DHT22;25176;51.060;3.720;2022-12-04T01:12:10;3.00;99.90
39493;DHT22;25176;51.060;3.720;2022-12-04T01:14:36;3.00;99.90
39493;DHT22;25176;51.060;3.720;2022-12-04T01:17:01;2.80;99.90
39493;DHT22;25176;51.060;3.720;2022-12-04T01:19:27;2.90;99.90
39493;DHT22;25176;51.060;3.720;2022-12-04T01:21:52;2.90;99.90
39493;DHT22;25176;51.060;3.720;2022-12-04T01:24:18;3.00;99.90
39493;DHT22;25176;51.060;3.720;2022-12-04T01:26:43;3.00;99.90
39493;DHT22;25176;51.060;3.720;2022-12-04T01:29:09;2.90;99.90
39493;DHT22;25176;51.060;3.720;2022-12-04T01:31:34;2.80;99.90
39493;DHT22;25176;51.060;3.720;2022-12-04T01:33:59;2.90;99.90
39493;DHT22;25176;51.060;3.720;2022-12-04T01:36:25;2.80;99.90
39493;DHT22;25176;51.060;3.720;2022-12-04T01:38:51;2.80;99.90
39493;DHT22;25176;51.060;3.720;2022-12-04T01:41:19;2.70;99.90
39493;DHT22;25176;51.060;3.720;2022-12-04T01:44:04;2.80;99.90
39493;DHT22;25176;51.060;3.720;2022-12-04T01:46:30;2.70;99.90
39493;DHT22;25176;51.060;3.720;2022-12-04T01:48:55;2.80;99.90
39493;DHT22;25176;51.060;3.720;2022-12-04T01:51:26;2.70;99.90
39493;DHT22;25176;51.060;3.720;2022-12-04T01:53:54;2.60;99.90
39493;DHT22;25176;51.060;3.720;2022-12-04T01:56:23;2.60;99.90
39493;DHT22;25176;51.060;3.720;2022-12-04T01:58:50;2.70;99.90
39493;DHT22;25176;51.060;3.720;2022-12-04T02:01:16;2.70;99.90
39493;DHT22;25176;51.060;3.720;2022-12-04T02:03:42;2.70;99.90
39493;DHT22;25176;51.060;3.720;2022-12-04T02:06:08;2.70;99.90
39493;DHT22;25176;51.060;3.720;2022-12-04T02:08:33;2.70;99.90
39493;DHT22;25176;51.060;3.720;2022-12-04T02:11:18;2.60;99.90
39493;DHT22;25176;51.060;3.720;2022-12-04T02:13:50;2.70;99.90
39493;DHT22;25176;51.060;3.720;2022-12-04T02:16:24;2.70;99.90
39493;DHT22;25176;51.060;3.720;2022-12-04T02:21:37;2.70;99.90
39493;DHT22;25176;51.060;3.720;2022-12-04T02:24:19;2.70;99.90
39493;DHT22;25176;51.060;3.720;2022-12-04T02:31:44;2.50;99.90
39493;DHT22;25176;51.060;3.720;2022-12-04T02:34:35;2.40;99.90
39493;DHT22;25176;51.060;3.720;2022-12-04T02:36:56;2.40;99.90
39493;DHT22;25176;51.060;3.720;2022-12-04T02:39:32;2.20;99.90
39493;DHT22;25176;51.060;3.720;2022-12-04T02:42:03;2.20;99.90
39493;DHT22;25176;51.060;3.720;2022-12-04T02:45:07;2.20;99.90
39493;DHT22;25176;51.060;3.720;2022-12-04T02:47:24;2.20;99.90
39493;DHT22;25176;51.060;3.720;2022-12-04T02:49:51;2.20;99.90
39493;DHT22;25176;51.060;3.720;2022-12-04T02:52:20;2.20;99.90
39493;DHT22;25176;51.060;3.720;2022-12-04T02:54:50;2.20;99.90
39493;DHT22;25176;51.060;3.720;2022-12-04T02:57:18;2.30;99.90
39493;DHT22;25176;51.060;3.720;2022-12-04T02:59:45;2.20;99.90
39493;DHT22;25176;51.060;3.720;2022-12-04T03:04:46;2.20;99.90
39493;DHT22;25176;51.060;3.720;2022-12-04T03:07:19;2.20;99.90
39493;DHT22;25176;51.060;3.720;2022-12-04T03:09:49;2.20;99.90
39493;DHT22;25176;51.060;3.720;2022-12-04T03:12:20;2.20;99.90
39493;DHT22;25176;51.060;3.720;2022-12-04T03:14:48;2.20;99.90
39493;DHT22;25176;51.060;3.720;2022-12-04T03:17:22;2.20;99.90
39493;DHT22;25176;51.060;3.720;2022-12-04T03:19:50;2.20;99.90
39493;DHT22;25176;51.060;3.720;2022-12-04T03:22:18;2.10;99.90
39493;DHT22;25176;51.060;3.720;2022-12-04T03:24:47;2.10;99.90
39493;DHT22;25176;51.060;3.720;2022-12-04T03:30:02;2.00;99.90
39493;DHT22;25176;51.060;3.720;2022-12-04T03:34:55;2.10;99.90
39493;DHT22;25176;51.060;3.720;2022-12-04T03:40:14;2.00;99.90
39493;DHT22;25176;51.060;3.720;2022-12-04T03:42:55;1.90;99.90
39493;DHT22;25176;51.060;3.720;2022-12-04T03:48:16;2.00;99.90
39493;DHT22;25176;51.060;3.720;2022-12-04T03:53:19;2.00;99.90
39493;DHT22;25176;51.060;3.720;2022-12-04T03:55:53;2.00;99.90
39493;DHT22;25176;51.060;3.720;2022-12-04T03:58:22;1.90;99.90
39493;DHT22;25176;51.060;3.720;2022-12-04T04:00:50;2.00;99.90
39493;DHT22;25176;51.060;3.720;2022-12-04T04:03:19;2.00;99.90
39493;DHT22;25176;51.060;3.720;2022-12-04T04:05:45;1.90;99.90
39493;DHT22;25176;51.060;3.720;2022-12-04T04:08:13;2.00;99.90
39493;DHT22;25176;51.060;3.720;2022-12-04T04:11:08;2.00;99.90
39493;DHT22;25176;51.060;3.720;2022-12-04T04:13:36;1.90;99.90
39493;DHT22;25176;51.060;3.720;2022-12-04T04:16:23;1.90;99.90
39493;DHT22;25176;51.060;3.720;2022-12-04T04:19:08;2.00;99.90
39493;DHT22;25176;51.060;3.720;2022-12-04T04:21:54;2.10;99.90
39493;DHT22;25176;51.060;3.720;2022-12-04T04:24:44;2.10;99.90
39493;DHT22;25176;51.060;3.720;2022-12-04T04:27:11;2.10;99.90
39493;DHT22;25176;51.060;3.720;2022-12-04T04:29:37;2.00;99.90
39493;DHT22;25176;51.060;3.720;2022-12-04T04:32:06;2.00;99.90
39493;DHT22;25176;51.060;3.720;2022-12-04T04:39:44;2.00;99.90
39493;DHT22;25176;51.060;3.720;2022-12-04T04:42:16;2.10;99.90
39493;DHT22;25176;51.060;3.720;2022-12-04T04:44:51;2.20;99.90
39493;DHT22;25176;51.060;3.720;2022-12-04T04:47:24;2.20;99.90
39493;DHT22;25176;51.060;3.720;2022-12-04T04:49:51;2.30;99.90
39493;DHT22;25176;51.060;3.720;2022-12-04T04:52:19;2.30;99.90
39493;DHT22;25176;51.060;3.720;2022-12-04T04:54:46;2.40;99.90
39493;DHT22;25176;51.060;3.720;2022-12-04T04:57:11;2.40;99.90
39493;DHT22;25176;51.060;3.720;2022-12-04T04:59:36;2.40;99.90
39493;DHT22;25176;51.060;3.720;2022-12-04T05:02:02;2.40;99.90
39493;DHT22;25176;51.060;3.720;2022-12-04T05:04:27;2.40;99.90
39493;DHT22;25176;51.060;3.720;2022-12-04T05:06:53;2.40;99.90
39493;DHT22;25176;51.060;3.720;2022-12-04T05:09:18;2.50;99.90
39493;DHT22;25176;51.060;3.720;2022-12-04T05:11:44;2.70;99.90
39493;DHT22;25176;51.060;3.720;2022-12-04T05:14:09;2.70;99.90
39493;DHT22;25176;51.060;3.720;2022-12-04T05:16:35;2.60;99.90
39493;DHT22;25176;51.060;3.720;2022-12-04T05:19:00;2.50;99.90
39493;DHT22;25176;51.060;3.720;2022-12-04T05:21:44;2.60;99.90
39493;DHT22;25176;51.060;3.720;2022-12-04T05:24:10;2.70;99.90
39493;DHT22;25176;51.060;3.720;2022-12-04T05:26:35;2.70;99.90
39493;DHT22;25176;51.060;3.720;2022-12-04T05:29:01;2.60;99.90
39493;DHT22;25176;51.060;3.720;2022-12-04T05:31:26;2.60;99.90
39493;DHT22;25176;51.060;3.720;2022-12-04T05:33:52;2.70;99.90
39493;DHT22;25176;51.060;3.720;2022-12-04T05:36:17;2.50;99.90
39493;DHT22;25176;51.060;3.720;2022-12-04T05:38:43;2.50;99.90
39493;DHT22;25176;51.060;3.720;2022-12-04T05:41:08;2.40;99.90
39493;DHT22;25176;51.060;3.720;2022-12-04T05:43:34;2.40;99.90
39493;DHT22;25176;51.060;3.720;2022-12-04T05:46:00;2.40;99.90
39493;DHT22;25176;51.060;3.720;2022-12-04T05:48:26;2.50;99.90
39493;DHT22;25176;51.060;3.720;2022-12-04T05:50:51;2.40;99.90
39493;DHT22;25176;51.060;3.720;2022-12-04T05:53:17;2.40;99.90
39493;DHT22;25176;51.060;3.720;2022-12-04T05:55:42;2.50;99.90
39493;DHT22;25176;51.060;3.720;2022-12-04T05:58:08;2.40;99.90
39493;DHT22;25176;51.060;3.720;2022-12-04T06:00:33;2.40;99.90
39493;DHT22;25176;51.060;3.720;2022-12-04T06:02:59;2.40;99.90
39493;DHT22;25176;51.060;3.720;2022-12-04T06:05:24;2.40;99.90
39493;DHT22;25176;51.060;3.720;2022-12-04T06:07:50;2.50;99.90
39493;DHT22;25176;51.060;3.720;2022-12-04T06:10:15;2.50;99.90
39493;DHT22;25176;51.060;3.720;2022-12-04T06:12:40;2.70;99.90
39493;DHT22;25176;51.060;3.720;2022-12-04T06:15:06;2.50;99.90
39493;DHT22;25176;51.060;3.720;2022-12-04T06:17:31;2.60;99.90
39493;DHT22;25176;51.060;3.720;2022-12-04T06:19:57;2.50;99.90
39493;DHT22;25176;51.060;3.720;2022-12-04T06:22:22;2.60;99.90
39493;DHT22;25176;51.060;3.720;2022-12-04T06:24:48;2.60;99.90
39493;DHT22;25176;51.060;3.720;2022-12-04T06:27:13;2.60;99.90
39493;DHT22;25176;51.060;3.720;2022-12-04T06:29:39;2.50;99.90
39493;DHT22;25176;51.060;3.720;2022-12-04T06:32:04;2.60;99.90
39493;DHT22;25176;51.060;3.720;2022-12-04T06:34:30;2.70;99.90
39493;DHT22;25176;51.060;3.720;2022-12-04T06:36:55;2.70;99.90
39493;DHT22;25176;51.060;3.720;2022-12-04T06:39:21;2.70;99.90
39493;DHT22;25176;51.060;3.720;2022-12-04T06:41:46;2.70;99.90
39493;DHT22;25176;51.060;3.720;2022-12-04T06:44:12;2.70;99.90
39493;DHT22;25176;51.060;3.720;2022-12-04T06:46:38;2.70;99.90
39493;DHT22;25176;51.060;3.720;2022-12-04T06:49:04;2.60;99.90
39493;DHT22;25176;51.060;3.720;2022-12-04T06:51:34;2.60;99.90
39493;DHT22;25176;51.060;3.720;2022-12-04T06:53:59;2.60;99.90
39493;DHT22;25176;51.060;3.720;2022-12-04T06:56:26;2.60;99.90
39493;DHT22;25176;51.060;3.720;2022-12-04T06:58:53;2.60;99.90
39493;DHT22;25176;51.060;3.720;2022-12-04T07:01:21;2.70;99.90
39493;DHT22;25176;51.060;3.720;2022-12-04T07:03:46;2.80;99.90
39493;DHT22;25176;51.060;3.720;2022-12-04T07:06:16;2.80;99.90
39493;DHT22;25176;51.060;3.720;2022-12-04T07:08:43;2.90;99.90
39493;DHT22;25176;51.060;3.720;2022-12-04T07:11:09;2.90;99.90
39493;DHT22;25176;51.060;3.720;2022-12-04T07:13:35;2.80;99.90
39493;DHT22;25176;51.060;3.720;2022-12-04T07:16:01;2.80;99.90
39493;DHT22;25176;51.060;3.720;2022-12-04T07:18:27;2.80;99.90
39493;DHT22;25176;51.060;3.720;2022-12-04T07:20:53;2.90;99.90
39493;DHT22;25176;51.060;3.720;2022-12-04T07:23:18;2.90;99.90
39493;DHT22;25176;51.060;3.720;2022-12-04T07:25:44;2.90;99.90
39493;DHT22;25176;51.060;3.720;2022-12-04T07:28:09;2.80;99.90
39493;DHT22;25176;51.060;3.720;2022-12-04T07:30:36;2.80;99.90
39493;DHT22;25176;51.060;3.720;2022-12-04T07:33:01;2.90;99.90
39493;DHT22;25176;51.060;3.720;2022-12-04T07:35:27;2.90;99.90
39493;DHT22;25176;51.060;3.720;2022-12-04T07:37:52;2.80;99.90
39493;DHT22;25176;51.060;3.720;2022-12-04T07:40:17;2.90;99.90
39493;DHT22;25176;51.060;3.720;2022-12-04T07:42:43;2.90;99.90
39493;DHT22;25176;51.060;3.720;2022-12-04T07:45:09;2.80;99.90
39493;DHT22;25176;51.060;3.720;2022-12-04T07:47:34;2.80;99.90
39493;DHT22;25176;51.060;3.720;2022-12-04T07:50:00;2.80;99.90
39493;DHT22;25176;51.060;3.720;2022-12-04T07:52:26;2.70;99.90
39493;DHT22;25176;51.060;3.720;2022-12-04T07:54:51;2.70;99.90
39493;DHT22;25176;51.060;3.720;2022-12-04T07:57:17;2.80;99.90
39493;DHT22;25176;51.060;3.720;2022-12-04T07:59:42;2.70;99.90
39493;DHT22;25176;51.060;3.720;2022-12-04T08:02:08;2.80;99.90
39493;DHT22;25176;51.060;3.720;2022-12-04T08:04:33;2.70;99.90
39493;DHT22;25176;51.060;3.720;2022-12-04T08:06:59;2.90;99.90
39493;DHT22;25176;51.060;3.720;2022-12-04T08:09:25;2.90;99.90
39493;DHT22;25176;51.060;3.720;2022-12-04T08:11:50;2.90;99.90
39493;DHT22;25176;51.060;3.720;2022-12-04T08:14:15;2.90;99.90
39493;DHT22;25176;51.060;3.720;2022-12-04T08:16:41;3.00;99.90
39493;DHT22;25176;51.060;3.720;2022-12-04T08:19:08;3.00;99.90
39493;DHT22;25176;51.060;3.720;2022-12-04T08:21:33;3.00;99.90
39493;DHT22;25176;51.060;3.720;2022-12-04T08:23:59;3.00;99.90
39493;DHT22;25176;51.060;3.720;2022-12-04T08:26:27;3.00;99.90
39493;DHT22;25176;51.060;3.720;2022-12-04T08:28:53;2.90;99.90
39493;DHT22;25176;51.060;3.720;2022-12-04T08:31:20;2.90;99.90
39493;DHT22;25176;51.060;3.720;2022-12-04T08:33:46;3.00;99.90
39493;DHT22;25176;51.060;3.720;2022-12-04T08:36:13;3.00;99.90
39493;DHT22;25176;51.060;3.720;2022-12-04T08:38:39;3.00;99.90
39493;DHT22;25176;51.060;3.720;2022-12-04T08:41:05;3.10;99.90
39493;DHT22;25176;51.060;3.720;2022-12-04T08:43:31;3.00;99.90
39493;DHT22;25176;51.060;3.720;2022-12-04T08:45:57;3.10;99.90
39493;DHT22;25176;51.060;3.720;2022-12-04T08:48:22;3.10;99.90
39493;DHT22;25176;51.060;3.720;2022-12-04T08:50:48;3.00;99.90
39493;DHT22;25176;51.060;3.720;2022-12-04T08:53:13;3.10;99.90
39493;DHT22;25176;51.060;3.720;2022-12-04T08:55:39;2.90;99.90
39493;DHT22;25176;51.060;3.720;2022-12-04T08:58:04;2.90;99.90
39493;DHT22;25176;51.060;3.720;2022-12-04T09:00:30;2.80;99.90
39493;DHT22;25176;51.060;3.720;2022-12-04T09:02:56;2.90;99.90
39493;DHT22;25176;51.060;3.720;2022-12-04T09:05:21;3.00;99.90
39493;DHT22;25176;51.060;3.720;2022-12-04T09:07:47;3.00;99.90
39493;DHT22;25176;51.060;3.720;2022-12-04T09:10:12;3.10;99.90
39493;DHT22;25176;51.060;3.720;2022-12-04T09:12:38;3.00;99.90
39493;DHT22;25176;51.060;3.720;2022-12-04T09:15:04;3.10;99.90
39493;DHT22;25176;51.060;3.720;2022-12-04T09:17:29;3.00;99.90
39493;DHT22;25176;51.060;3.720;2022-12-04T09:19:55;3.10;99.90
39493;DHT22;25176;51.060;3.720;2022-12-04T09:22:20;3.20;99.90
39493;DHT22;25176;51.060;3.720;2022-12-04T09:24:45;3.30;99.90
39493;DHT22;25176;51.060;3.720;2022-12-04T09:27:11;3.30;99.90
39493;DHT22;25176;51.060;3.720;2022-12-04T09:29:36;3.20;99.90
39493;DHT22;25176;51.060;3.720;2022-12-04T09:32:02;3.20;99.90
39493;DHT22;25176;51.060;3.720;2022-12-04T09:34:27;3.20;99.90
39493;DHT22;25176;51.060;3.720;2022-12-04T09:36:53;3.20;99.90
39493;DHT22;25176;51.060;3.720;2022-12-04T09:39:18;3.20;99.90
39493;DHT22;25176;51.060;3.720;2022-12-04T09:42:05;3.10;99.90
39493;DHT22;25176;51.060;3.720;2022-12-04T09:44:34;3.20;99.90
39493;DHT22;25176;51.060;3.720;2022-12-04T09:49:36;3.20;99.90
39493;DHT22;25176;51.060;3.720;2022-12-04T09:52:08;3.30;99.90
39493;DHT22;25176;51.060;3.720;2022-12-04T09:54:38;3.30;99.90
39493;DHT22;25176;51.060;3.720;2022-12-04T09:57:09;3.30;99.90
39493;DHT22;25176;51.060;3.720;2022-12-04T09:59:36;3.40;99.90
39493;DHT22;25176;51.060;3.720;2022-12-04T10:02:48;3.40;99.90
39493;DHT22;25176;51.060;3.720;2022-12-04T10:04:48;3.50;99.90
39493;DHT22;25176;51.060;3.720;2022-12-04T10:07:15;3.50;99.90
39493;DHT22;25176;51.060;3.720;2022-12-04T10:12:29;3.40;99.90
39493;DHT22;25176;51.060;3.720;2022-12-04T10:17:26;3.50;99.90
39493;DHT22;25176;51.060;3.720;2022-12-04T10:20:08;3.50;99.90
39493;DHT22;25176;51.060;3.720;2022-12-04T10:25:10;3.50;99.90
39493;DHT22;25176;51.060;3.720;2022-12-04T10:30:27;3.50;99.90
39493;DHT22;25176;51.060;3.720;2022-12-04T10:33:04;3.60;99.90
39493;DHT22;25176;51.060;3.720;2022-12-04T10:35:35;3.60;99.90
39493;DHT22;25176;51.060;3.720;2022-12-04T10:38:02;3.50;99.90
39493;DHT22;25176;51.060;3.720;2022-12-04T10:40:33;3.50;99.90
39493;DHT22;25176;51.060;3.720;2022-12-04T10:43:02;3.60;99.90
39493;DHT22;25176;51.060;3.720;2022-12-04T10:45:28;3.70;99.90
39493;DHT22;25176;51.060;3.720;2022-12-04T10:47:54;3.80;99.90
39493;DHT22;25176;51.060;3.720;2022-12-04T10:50:20;3.80;99.90
39493;DHT22;25176;51.060;3.720;2022-12-04T10:52:46;3.80;99.90
39493;DHT22;25176;51.060;3.720;2022-12-04T10:55:12;3.80;99.90
39493;DHT22;25176;51.060;3.720;2022-12-04T10:57:44;3.80;99.90
39493;DHT22;25176;51.060;3.720;2022-12-04T11:00:27;3.70;99.90
39493;DHT22;25176;51.060;3.720;2022-12-04T11:02:54;3.80;99.90
39493;DHT22;25176;51.060;3.720;2022-12-04T11:05:27;3.80;99.90
39493;DHT22;25176;51.060;3.720;2022-12-04T11:07:53;3.70;99.90
39493;DHT22;25176;51.060;3.720;2022-12-04T11:10:33;3.60;99.90
39493;DHT22;25176;51.060;3.720;2022-12-04T11:15:27;3.70;99.90
39493;DHT22;25176;51.060;3.720;2022-12-04T11:17:53;3.60;99.90
39493;DHT22;25176;51.060;3.720;2022-12-04T11:20:20;3.70;99.90
39493;DHT22;25176;51.060;3.720;2022-12-04T11:22:52;3.70;99.90
39493;DHT22;25176;51.060;3.720;2022-12-04T11:25:19;3.70;99.90
39493;DHT22;25176;51.060;3.720;2022-12-04T11:27:45;3.80;99.90
39493;DHT22;25176;51.060;3.720;2022-12-04T11:30:13;3.80;99.90
39493;DHT22;25176;51.060;3.720;2022-12-04T11:32:39;4.00;99.90
39493;DHT22;25176;51.060;3.720;2022-12-04T11:35:11;4.10;99.90
39493;DHT22;25176;51.060;3.720;2022-12-04T11:37:37;4.30;99.90
39493;DHT22;25176;51.060;3.720;2022-12-04T11:40:04;4.30;99.90
39493;DHT22;25176;51.060;3.720;2022-12-04T11:42:31;4.30;99.90
39493;DHT22;25176;51.060;3.720;2022-12-04T11:45:01;4.00;99.90
39493;DHT22;25176;51.060;3.720;2022-12-04T11:47:28;4.10;99.90
39493;DHT22;25176;51.060;3.720;2022-12-04T11:50:11;4.10;99.90
39493;DHT22;25176;51.060;3.720;2022-12-04T11:52:43;4.10;99.90
39493;DHT22;25176;51.060;3.720;2022-12-04T11:55:18;4.00;99.90
39493;DHT22;25176;51.060;3.720;2022-12-04T11:57:46;4.20;99.90
39493;DHT22;25176;51.060;3.720;2022-12-04T12:00:14;4.00;99.90
39493;DHT22;25176;51.060;3.720;2022-12-04T12:02:56;3.90;99.90
39493;DHT22;25176;51.060;3.720;2022-12-04T12:10:35;3.90;99.90
39493;DHT22;25176;51.060;3.720;2022-12-04T12:13:12;3.80;99.90
39493;DHT22;25176;51.060;3.720;2022-12-04T12:15:49;3.80;99.90
39493;DHT22;25176;51.060;3.720;2022-12-04T12:21:06;3.60;99.90
39493;DHT22;25176;51.060;3.720;2022-12-04T12:26:13;3.70;99.90
39493;DHT22;25176;51.060;3.720;2022-12-04T12:33:50;3.40;99.90
39493;DHT22;25176;51.060;3.720;2022-12-04T12:36:17;3.50;99.90
39493;DHT22;25176;51.060;3.720;2022-12-04T12:38:47;3.60;99.90
39493;DHT22;25176;51.060;3.720;2022-12-04T12:41:15;3.60;99.90
39493;DHT22;25176;51.060;3.720;2022-12-04T12:43:43;3.60;99.90
39493;DHT22;25176;51.060;3.720;2022-12-04T12:54:14;3.60;99.90
39493;DHT22;25176;51.060;3.720;2022-12-04T12:56:40;3.70;99.90
39493;DHT22;25176;51.060;3.720;2022-12-04T12:59:09;3.70;99.90
39493;DHT22;25176;51.060;3.720;2022-12-04T13:04:17;3.80;99.90
39493;DHT22;25176;51.060;3.720;2022-12-04T13:06:46;3.80;99.90
39493;DHT22;25176;51.060;3.720;2022-12-04T13:09:26;4.00;99.90
39493;DHT22;25176;51.060;3.720;2022-12-04T13:12:10;3.90;99.90
39493;DHT22;25176;51.060;3.720;2022-12-04T13:14:36;3.90;99.90
39493;DHT22;25176;51.060;3.720;2022-12-04T13:19:40;3.70;99.90
39493;DHT22;25176;51.060;3.720;2022-12-04T13:24:43;3.80;99.90
39493;DHT22;25176;51.060;3.720;2022-12-04T13:35:01;3.70;99.90
39493;DHT22;25176;51.060;3.720;2022-12-04T13:37:32;3.80;99.90
39493;DHT22;25176;51.060;3.720;2022-12-04T13:42:42;4.00;99.90
39493;DHT22;25176;51.060;3.720;2022-12-04T13:45:12;3.90;99.90
39493;DHT22;25176;51.060;3.720;2022-12-04T13:47:54;3.70;99.90
39493;DHT22;25176;51.060;3.720;2022-12-04T13:52:45;3.70;99.90
39493;DHT22;25176;51.060;3.720;2022-12-04T13:57:59;3.80;99.90
39493;DHT22;25176;51.060;3.720;2022-12-04T14:00:29;3.70;99.90
39493;DHT22;25176;51.060;3.720;2022-12-04T14:02:56;3.60;99.90
39493;DHT22;25176;51.060;3.720;2022-12-04T14:05:27;3.50;99.90
39493;DHT22;25176;51.060;3.720;2022-12-04T14:11:08;3.50;99.90
39493;DHT22;25176;51.060;3.720;2022-12-04T14:13:43;3.50;99.90
39493;DHT22;25176;51.060;3.720;2022-12-04T14:18:48;3.50;99.90
39493;DHT22;25176;51.060;3.720;2022-12-04T14:21:15;3.50;99.90
39493;DHT22;25176;51.060;3.720;2022-12-04T14:23:41;3.50;99.90
39493;DHT22;25176;51.060;3.720;2022-12-04T14:26:20;3.40;99.90
39493;DHT22;25176;51.060;3.720;2022-12-04T14:28:46;3.40;99.90
39493;DHT22;25176;51.060;3.720;2022-12-04T14:33:55;3.50;99.90
39493;DHT22;25176;51.060;3.720;2022-12-04T14:36:26;3.40;99.90
39493;DHT22;25176;51.060;3.720;2022-12-04T14:39:00;3.50;99.90
39493;DHT22;25176;51.060;3.720;2022-12-04T14:41:26;3.60;99.90
39493;DHT22;25176;51.060;3.720;2022-12-04T14:43:51;3.70;99.90
39493;DHT22;25176;51.060;3.720;2022-12-04T14:46:19;3.70;99.90
39493;DHT22;25176;51.060;3.720;2022-12-04T14:49:06;3.70;99.90
39493;DHT22;25176;51.060;3.720;2022-12-04T14:51:36;3.70;99.90
39493;DHT22;25176;51.060;3.720;2022-12-04T14:54:09;3.60;99.90
39493;DHT22;25176;51.060;3.720;2022-12-04T14:59:26;3.50;99.90
39493;DHT22;25176;51.060;3.720;2022-12-04T15:01:56;3.50;99.90
39493;DHT22;25176;51.060;3.720;2022-12-04T15:04:37;3.50;99.90
39493;DHT22;25176;51.060;3.720;2022-12-04T15:07:11;3.50;99.90
39493;DHT22;25176;51.060;3.720;2022-12-04T15:09:48;3.50;99.90
39493;DHT22;25176;51.060;3.720;2022-12-04T15:12:37;3.60;99.90
39493;DHT22;25176;51.060;3.720;2022-12-04T15:15:14;3.60;99.90
39493;DHT22;25176;51.060;3.720;2022-12-04T15:17:41;3.50;99.90
39493;DHT22;25176;51.060;3.720;2022-12-04T15:20:14;3.50;99.90
39493;DHT22;25176;51.060;3.720;2022-12-04T15:22:40;3.50;99.90
39493;DHT22;25176;51.060;3.720;2022-12-04T15:25:05;3.40;99.90
39493;DHT22;25176;51.060;3.720;2022-12-04T15:27:31;3.60;99.90
39493;DHT22;25176;51.060;3.720;2022-12-04T15:29:57;3.50;99.90
39493;DHT22;25176;51.060;3.720;2022-12-04T15:32:23;3.70;99.90
39493;DHT22;25176;51.060;3.720;2022-12-04T15:35:02;3.50;99.90
39493;DHT22;25176;51.060;3.720;2022-12-04T15:37:30;3.50;99.90
39493;DHT22;25176;51.060;3.720;2022-12-04T15:39:56;3.30;99.90
39493;DHT22;25176;51.060;3.720;2022-12-04T15:44:54;3.30;99.90
39493;DHT22;25176;51.060;3.720;2022-12-04T15:47:26;3.30;99.90
39493;DHT22;25176;51.060;3.720;2022-12-04T15:49:52;3.30;99.90
39493;DHT22;25176;51.060;3.720;2022-12-04T15:52:18;3.20;99.90
39493;DHT22;25176;51.060;3.720;2022-12-04T15:55:06;3.10;99.90
39493;DHT22;25176;51.060;3.720;2022-12-04T15:57:34;3.10;99.90
39493;DHT22;25176;51.060;3.720;2022-12-04T16:00:02;3.00;99.90
39493;DHT22;25176;51.060;3.720;2022-12-04T16:02:34;3.20;99.90
39493;DHT22;25176;51.060;3.720;2022-12-04T16:05:13;3.30;99.90
39493;DHT22;25176;51.060;3.720;2022-12-04T16:07:51;3.40;99.90
39493;DHT22;25176;51.060;3.720;2022-12-04T16:10:33;3.30;99.90
39493;DHT22;25176;51.060;3.720;2022-12-04T16:13:00;3.20;99.90
39493;DHT22;25176;51.060;3.720;2022-12-04T16:15:36;3.20;99.90
39493;DHT22;25176;51.060;3.720;2022-12-04T16:18:03;3.20;99.90
39493;DHT22;25176;51.060;3.720;2022-12-04T16:20:32;3.20;99.90
39493;DHT22;25176;51.060;3.720;2022-12-04T16:22:58;3.30;99.90
39493;DHT22;25176;51.060;3.720;2022-12-04T16:25:23;3.20;99.90
39493;DHT22;25176;51.060;3.720;2022-12-04T16:27:49;3.10;99.90
39493;DHT22;25176;51.060;3.720;2022-12-04T16:30:14;3.20;99.90
39493;DHT22;25176;51.060;3.720;2022-12-04T16:32:39;3.10;99.90
39493;DHT22;25176;51.060;3.720;2022-12-04T16:35:05;3.10;99.90
39493;DHT22;25176;51.060;3.720;2022-12-04T16:37:31;3.10;99.90
39493;DHT22;25176;51.060;3.720;2022-12-04T16:39:57;3.30;99.90
39493;DHT22;25176;51.060;3.720;2022-12-04T16:42:26;3.20;99.90
39493;DHT22;25176;51.060;3.720;2022-12-04T16:44:52;3.10;99.90
39493;DHT22;25176;51.060;3.720;2022-12-04T16:47:18;3.20;99.90
39493;DHT22;25176;51.060;3.720;2022-12-04T16:49:46;3.10;99.90
39493;DHT22;25176;51.060;3.720;2022-12-04T16:52:12;3.10;99.90
39493;DHT22;25176;51.060;3.720;2022-12-04T16:54:39;3.00;99.90
39493;DHT22;25176;51.060;3.720;2022-12-04T16:57:05;3.00;99.90
39493;DHT22;25176;51.060;3.720;2022-12-04T16:59:31;3.10;99.90
39493;DHT22;25176;51.060;3.720;2022-12-04T17:01:56;3.10;99.90
39493;DHT22;25176;51.060;3.720;2022-12-04T17:04:22;3.00;99.90
39493;DHT22;25176;51.060;3.720;2022-12-04T17:06:48;3.10;99.90
39493;DHT22;25176;51.060;3.720;2022-12-04T17:09:13;3.10;99.90
39493;DHT22;25176;51.060;3.720;2022-12-04T17:11:39;3.20;99.90
39493;DHT22;25176;51.060;3.720;2022-12-04T17:14:06;3.20;99.90
39493;DHT22;25176;51.060;3.720;2022-12-04T17:16:35;3.20;99.90
39493;DHT22;25176;51.060;3.720;2022-12-04T17:19:01;3.20;99.90
39493;DHT22;25176;51.060;3.720;2022-12-04T17:21:26;3.20;99.90
39493;DHT22;25176;51.060;3.720;2022-12-04T17:23:52;3.20;99.90
39493;DHT22;25176;51.060;3.720;2022-12-04T17:26:17;3.10;99.90
39493;DHT22;25176;51.060;3.720;2022-12-04T17:28:43;3.10;99.90
39493;DHT22;25176;51.060;3.720;2022-12-04T17:31:29;3.10;99.90
39493;DHT22;25176;51.060;3.720;2022-12-04T17:33:54;3.10;99.90
39493;DHT22;25176;51.060;3.720;2022-12-04T17:36:21;3.10;99.90
39493;DHT22;25176;51.060;3.720;2022-12-04T17:38:50;3.10;99.90